NCAR-RAP Real-Time Weather Data

Output produced by METARs form (17 December 2018  08:24 UTC)
found at http://weather.rap.ucar.edu/surface/
 
RJSS 170800Z 02004KT 9999 -SHRA FEW020 SCT040 BKN050 08/04 Q1005
RJSS 170700Z 02006KT 9999 FEW020 BKN040 09/03 Q1004
RJSS 170600Z 02011KT 9999 FEW020 BKN040 10/02 Q1004
RJSS 170500Z 35006KT 270V080 9999 FEW020 SCT050 12/03 Q1003
RJSS 170400Z 11004KT 090V160 9999 FEW020 11/03 Q1004
RJSS 170300Z 12005KT 9999 FEW020 10/02 Q1005
RJSS 170200Z VRB01KT 9999 FEW030 BKN/// 08/01 Q1006
RJSS 170100Z 29004KT 260V330 9999 FEW020 BKN/// 07/01 Q1007
RJSS 170000Z 30003KT 270V350 9999 FEW020 BKN120 BKN/// 05/M00 Q1008
RJSS 162300Z VRB02KT 9999 FEW010 SCT150 BKN180 03/M01 Q1009
RJSS 162200Z 28003KT 9999 FEW010 SCT180 BKN/// 02/M01 Q1009
RJSS 162100Z 36004KT 9999 FEW020 SCT180 BKN/// 02/M01 Q1009
RJSS 162030Z 36005KT 9999 FEW020 SCT180 BKN/// 02/M00 Q1009 RMK 1CU020 3AC180 A2981
RJSS 161200Z 28007KT 9999 FEW030 SCT150 BKN180 06/M01 Q1014
RJSS 161100Z 25005KT 9999 FEW030 SCT130 BKN150 06/M01 Q1016
RJSS 161000Z 24005KT 9999 FEW030 BKN140 BKN/// 05/M02 Q1017
RJSS 160900Z 26003KT 9999 FEW030 SCT150 BKN180 06/M03 Q1018
RJSS 160800Z 25005KT 9999 FEW030 BKN160 BKN/// 06/M02 Q1018
RJSS 160700Z VRB02KT 9999 FEW030 BKN180 BKN/// 06/M03 Q1019
RJSS 160600Z 23005KT 9999 FEW030 BKN180 BKN/// 07/M03 Q1020
RJSS 160500Z 21007KT 9999 FEW030 BKN180 BKN/// 07/M03 Q1020
RJSS 160400Z 22008KT 9999 FEW030 SCT180 OVC/// 07/M05 Q1021
RJSS 160300Z 24013KT 9999 FEW030 OVC/// 07/M06 Q1022
RJSS 160200Z 22008KT 9999 FEW030 BKN/// 06/M05 Q1023
RJSS 160100Z 24010KT 9999 FEW030 SCT/// 05/M04 Q1025
RJSS 160000Z 23010KT 9999 FEW020 04/M04 Q1025
RJSS 151200Z 28002KT 9999 FEW020 M00/M03 Q1027
RJSS 151100Z 29004KT 9999 FEW020 00/M03 Q1027
RJSS 151000Z 18003KT 100V210 9999 FEW020 SCT050 01/M04 Q1027
RJSS 150900Z VRB02KT 9999 FEW020 SCT050 02/M03 Q1026
RJSS 150800Z 35005KT 9999 FEW020 02/M04 Q1026
RJSS 150700Z 33009KT 9999 FEW015 SCT040 03/M04 Q1026
RJSS 150600Z 31013KT 9999 FEW015 SCT035 05/M04 Q1026
RJSS 150500Z 29018KT 9999 FEW015 SCT035 05/M05 Q1025
RJSS 150400Z 29017KT 9999 FEW015 SCT040 05/M05 Q1025
RJSS 150300Z 31013KT 9999 FEW015 SCT030 05/M04 Q1025
RJSS 150200Z 32009KT 280V360 9999 FEW010 SCT025 04/M03 Q1026
RJSS 150100Z 03004KT 340V060 9999 VCSH FEW010 SCT040 02/M02 Q1027
RJSS 150000Z 33006KT 9999 -SHSN FEW010 SCT040 01/M01 Q1027
RJSS 142300Z 34004KT 310V010 9999 -SHSN FEW015 BKN040 BKN050 00/M03 Q1026
RJSS 142200Z 02003KT 9999 FEW015 BKN040 BKN050 M00/M03 Q1026
RJSS 142100Z 34003KT 9999 -SHSN FEW020 SCT040 BKN050 M01/M03 Q1025
RJSS 142030Z 01004KT 9999 -SHSN FEW020 SCT040 BKN050 M00/M03 Q1025 RMK 1CU020 3CU040 6CU050 A3028